Newcastle, Wyoming
Current Conditions -  °F | °C
As of 4:15 AM on Friday 24 Oct 2014 (Local Time) from KECS Reporting Station
Clear Clear  
Wind Chill: 38°   Ceiling: Unl
Heat Index: 43°   Visibility: 10mi
Dew Point: 30°   Wind: 8mph
Humidity: 61%   Direction: 10°N
Pressure: 29.98"   Gusts: NA
Location:  43.85°N, 104.2°W
Report Text: KECS 241015Z AUTO 01007KT 10SM CLR 06/M01 A2998 RMK AO2
Loading
Personal Weather Stations






























Interactive Weather Map New forecast layout! Learn more

10-Day Weather Forecast

Advertisements
Track Severe Weather on mobile